Terminal Aerodrome Forecast
Issued by NWS

Home | Current Version | Previous Version | Text Only | Print | Product List | Glossary On
Versions: 1 2 3 4 5 6 7 8 9 10 11 12 13 14 15 16 17 18 19 20 21 22 23 24 25 26 27 28 29 30 31 32 33 34 35 36 37
000
FTUS41 KBUF 201100
TAFJHW
TAF
KJHW 201135Z 2012/2112 19012G18KT P6SM BKN025
     FM201400 20016G24KT P6SM SCT025 BKN250
     FM201700 20016G26KT P6SM SCT250
     FM210000 19012G20KT P6SM FEW025 SCT035
     FM210400 20015KT P6SM SCT025 BKN035
     FM210800 21012KT P6SM VCSH SCT015 OVC025
      AMD LTD TO CLD VIS AND WIND=

USA.gov is the U.S. government's official web portal to all federal, state and local government web resources and services.